Time,TemperatureF,DewpointF,PressureIn,WindDirection,WindDirectionDegrees,WindSpeedMPH,WindSpeedGustMPH,Humidity,HourlyPrecipIn,Conditions,Clouds,dailyrainin,SolarRadiationWatts/m^2,SoftwareType,DateUTC
2013-09-18 00:07:00,60.0,54.0,29.87,West,279,0.0,0.0,80,0.00,,,0.00,0,weatherlink.com 1.10,2013-09-18 07:07:00,
2013-09-18 00:22:00,59.5,54.0,29.88,West,279,0.0,0.0,82,0.00,,,0.00,0,weatherlink.com 1.10,2013-09-18 07:22:00,
2013-09-18 00:37:00,59.2,54.0,29.87,West,279,0.0,1.0,83,0.00,,,0.00,0,weatherlink.com 1.10,2013-09-18 07:37:00,
2013-09-18 00:52:00,58.9,54.0,29.87,West,279,0.0,1.0,85,0.00,,,0.00,0,weatherlink.com 1.10,2013-09-18 07:52:00,
2013-09-18 01:07:00,58.6,54.0,29.87,West,279,0.0,1.0,85,0.00,,,0.00,0,weatherlink.com 1.10,2013-09-18 08:07:00,
2013-09-18 01:22:00,58.3,54.0,29.87,West,279,0.0,1.0,86,0.00,,,0.00,0,weatherlink.com 1.10,2013-09-18 08:22:00,
2013-09-18 01:37:00,58.0,54.0,29.87,West,278,0.0,1.0,86,0.00,,,0.00,0,weatherlink.com 1.10,2013-09-18 08:37:00,
2013-09-18 01:52:00,57.6,53.0,29.88,WNW,287,0.0,1.0,85,0.00,,,0.00,0,weatherlink.com 1.10,2013-09-18 08:52:00,
2013-09-18 02:07:00,57.1,52.0,29.87,WNW,287,0.0,0.0,84,0.00,,,0.00,0,weatherlink.com 1.10,2013-09-18 09:07:00,
2013-09-18 02:22:00,56.9,52.0,29.87,WNW,287,0.0,0.0,83,0.00,,,0.00,0,weatherlink.com 1.10,2013-09-18 09:22:00,
2013-09-18 02:37:00,56.8,51.0,29.87,WNW,287,0.0,1.0,82,0.00,,,0.00,0,weatherlink.com 1.10,2013-09-18 09:37:00,
2013-09-18 02:52:00,56.6,51.0,29.86,WNW,287,0.0,1.0,82,0.00,,,0.00,0,weatherlink.com 1.10,2013-09-18 09:52:00,
2013-09-18 03:07:00,56.2,51.0,29.86,WNW,287,0.0,0.0,82,0.00,,,0.00,0,weatherlink.com 1.10,2013-09-18 10:07:00,
2013-09-18 03:22:00,56.0,51.0,29.86,WNW,287,0.0,0.0,82,0.00,,,0.00,0,weatherlink.com 1.10,2013-09-18 10:22:00,
2013-09-18 03:37:00,55.9,51.0,29.86,WNW,287,0.0,0.0,82,0.00,,,0.00,0,weatherlink.com 1.10,2013-09-18 10:37:00,
2013-09-18 03:52:00,55.9,51.0,29.86,WNW,288,0.0,1.0,82,0.00,,,0.00,0,weatherlink.com 1.10,2013-09-18 10:52:00,
2013-09-18 04:07:00,55.9,51.0,29.86,WNW,288,0.0,1.0,82,0.00,,,0.00,0,weatherlink.com 1.10,2013-09-18 11:07:00,
2013-09-18 04:22:00,56.0,51.0,29.86,WNW,288,0.0,1.0,82,0.00,,,0.00,0,weatherlink.com 1.10,2013-09-18 11:22:00,
2013-09-18 04:37:00,56.1,51.0,29.86,WNW,288,0.0,1.0,82,0.00,,,0.00,0,weatherlink.com 1.10,2013-09-18 11:37:00,
2013-09-18 04:52:00,56.2,51.0,29.86,WNW,288,0.0,1.0,82,0.00,,,0.00,0,weatherlink.com 1.10,2013-09-18 11:52:00,
2013-09-18 05:07:00,56.1,51.0,29.86,WNW,288,0.0,1.0,82,0.00,,,0.00,0,weatherlink.com 1.10,2013-09-18 12:07:00,
2013-09-18 05:22:00,56.0,51.0,29.86,WNW,288,0.0,1.0,82,0.00,,,0.00,0,weatherlink.com 1.10,2013-09-18 12:22:00,
2013-09-18 05:37:00,55.9,51.0,29.87,WNW,288,0.0,1.0,82,0.00,,,0.00,0,weatherlink.com 1.10,2013-09-18 12:37:00,
2013-09-18 05:52:00,56.0,51.0,29.87,WNW,288,0.0,1.0,82,0.00,,,0.00,0,weatherlink.com 1.10,2013-09-18 12:52:00,
2013-09-18 06:07:00,56.2,51.0,29.87,WNW,291,1.0,1.0,82,0.00,,,0.00,0,weatherlink.com 1.10,2013-09-18 13:07:00,
2013-09-18 06:23:00,56.2,50.0,29.88,WNW,299,0.0,1.0,81,0.00,,,0.00,0,weatherlink.com 1.10,2013-09-18 13:23:00,
2013-09-18 06:38:00,56.4,50.0,29.88,NW,310,0.0,1.0,80,0.00,,,0.00,0,weatherlink.com 1.10,2013-09-18 13:38:00,
2013-09-18 06:53:00,56.5,50.0,29.89,NW,311,0.0,2.0,80,0.00,,,0.00,5,weatherlink.com 1.10,2013-09-18 13:53:00,
2013-09-18 07:08:00,56.6,51.0,29.88,NW,315,0.0,1.0,80,0.00,,,0.00,12,weatherlink.com 1.10,2013-09-18 14:08:00,
2013-09-18 07:23:00,56.9,50.0,29.89,NNW,336,0.0,3.0,79,0.00,,,0.00,26,weatherlink.com 1.10,2013-09-18 14:23:00,
2013-09-18 07:38:00,57.6,51.0,29.89,North,360,0.0,3.0,79,0.00,,,0.00,35,weatherlink.com 1.10,2013-09-18 14:38:00,
2013-09-18 07:53:00,58.0,52.0,29.90,North,355,0.0,2.0,79,0.00,,,0.00,23,weatherlink.com 1.10,2013-09-18 14:53:00,
2013-09-18 08:08:00,58.2,51.0,29.89,North,355,2.0,2.0,78,0.00,,,0.00,33,weatherlink.com 1.10,2013-09-18 15:08:00,
2013-09-18 08:23:00,59.4,52.0,29.89,NNE,18,0.0,3.0,76,0.00,,,0.00,234,weatherlink.com 1.10,2013-09-18 15:23:00,
2013-09-18 08:38:00,61.5,53.0,29.89,NNE,18,0.0,1.0,73,0.00,,,0.00,288,weatherlink.com 1.10,2013-09-18 15:38:00,
2013-09-18 08:53:00,63.5,53.0,29.90,NNE,17,0.0,3.0,69,0.00,,,0.00,339,weatherlink.com 1.10,2013-09-18 15:53:00,
2013-09-18 09:08:00,65.3,54.0,29.90,NNE,16,2.0,2.0,66,0.00,,,0.00,390,weatherlink.com 1.10,2013-09-18 16:08:00,
2013-09-18 09:23:00,67.3,55.0,29.90,North,355,0.0,2.0,64,0.00,,,0.00,448,weatherlink.com 1.10,2013-09-18 16:23:00,
2013-09-18 09:38:00,68.5,53.0,29.91,North,5,1.0,4.0,59,0.00,,,0.00,635,weatherlink.com 1.10,2013-09-18 16:38:00,
2013-09-18 09:53:00,70.5,53.0,29.90,North,5,0.0,2.0,55,0.00,,,0.00,531,weatherlink.com 1.10,2013-09-18 16:53:00,
2013-09-18 10:08:00,72.8,51.0,29.90,North,5,0.0,3.0,47,0.00,,,0.00,577,weatherlink.com 1.10,2013-09-18 17:08:00,
2013-09-18 10:23:00,73.8,50.0,29.90,NNE,29,2.0,5.0,43,0.00,,,0.00,615,weatherlink.com 1.10,2013-09-18 17:23:00,
2013-09-18 10:38:00,74.6,51.0,29.90,NNE,24,0.0,5.0,44,0.00,,,0.00,652,weatherlink.com 1.10,2013-09-18 17:38:00,
2013-09-18 10:53:00,77.4,50.0,29.89,ENE,69,0.0,3.0,39,0.00,,,0.00,689,weatherlink.com 1.10,2013-09-18 17:53:00,
2013-09-18 11:08:00,78.5,49.0,29.89,ESE,115,2.0,3.0,35,0.00,,,0.00,722,weatherlink.com 1.10,2013-09-18 18:08:00,
2013-09-18 11:24:00,79.5,54.0,29.88,SW,217,2.0,4.0,42,0.00,,,0.00,749,weatherlink.com 1.10,2013-09-18 18:24:00,
2013-09-18 11:39:00,75.1,55.0,29.88,South,186,3.0,5.0,50,0.00,,,0.00,773,weatherlink.com 1.10,2013-09-18 18:39:00,
2013-09-18 11:54:00,72.6,54.0,29.88,South,182,1.0,6.0,52,0.00,,,0.00,793,weatherlink.com 1.10,2013-09-18 18:54:00,
2013-09-18 12:09:00,73.1,53.0,29.88,SSE,159,1.0,6.0,50,0.00,,,0.00,812,weatherlink.com 1.10,2013-09-18 19:09:00,
2013-09-18 12:24:00,73.6,54.0,29.89,SSE,165,3.0,6.0,50,0.00,,,0.00,823,weatherlink.com 1.10,2013-09-18 19:24:00,
2013-09-18 12:39:00,74.8,52.0,29.88,SSE,157,3.0,6.0,45,0.00,,,0.00,838,weatherlink.com 1.10,2013-09-18 19:39:00,
2013-09-18 12:54:00,75.0,51.0,29.88,SSW,204,4.0,7.0,43,0.00,,,0.00,840,weatherlink.com 1.10,2013-09-18 19:54:00,
2013-09-18 13:09:00,75.6,51.0,29.87,SSW,198,2.0,7.0,43,0.00,,,0.00,846,weatherlink.com 1.10,2013-09-18 20:09:00,
2013-09-18 13:24:00,75.1,54.0,29.87,SW,217,4.0,8.0,48,0.00,,,0.00,840,weatherlink.com 1.10,2013-09-18 20:24:00,
2013-09-18 13:39:00,72.9,56.0,29.87,SSE,166,3.0,8.0,56,0.00,,,0.00,830,weatherlink.com 1.10,2013-09-18 20:39:00,
2013-09-18 13:54:00,71.3,55.0,29.86,SSE,147,3.0,8.0,57,0.00,,,0.00,823,weatherlink.com 1.10,2013-09-18 20:54:00,
2013-09-18 14:09:00,72.6,54.0,29.86,SE,145,4.0,8.0,53,0.00,,,0.00,812,weatherlink.com 1.10,2013-09-18 21:09:00,
2013-09-18 14:24:00,71.9,53.0,29.85,SE,124,5.0,9.0,52,0.00,,,0.00,793,weatherlink.com 1.10,2013-09-18 21:24:00,
2013-09-18 14:39:00,72.2,53.0,29.85,SSE,163,4.0,8.0,52,0.00,,,0.00,770,weatherlink.com 1.10,2013-09-18 21:39:00,
2013-09-18 14:54:00,71.3,55.0,29.85,South,180,2.0,8.0,57,0.00,,,0.00,745,weatherlink.com 1.10,2013-09-18 21:54:00,
2013-09-18 15:09:00,72.9,54.0,29.84,SSW,194,3.0,7.0,52,0.00,,,0.00,721,weatherlink.com 1.10,2013-09-18 22:09:00,
2013-09-18 15:24:00,73.6,54.0,29.84,SSE,154,2.0,6.0,51,0.00,,,0.00,684,weatherlink.com 1.10,2013-09-18 22:24:00,
2013-09-18 15:39:00,75.0,54.0,29.83,SSE,153,2.0,8.0,48,0.00,,,0.00,652,weatherlink.com 1.10,2013-09-18 22:39:00,
2013-09-18 15:54:00,74.6,52.0,29.83,ESE,121,4.0,8.0,46,0.00,,,0.00,610,weatherlink.com 1.10,2013-09-18 22:54:00,
2013-09-18 16:24:00,74.3,52.0,29.83,SSE,167,2.0,8.0,46,0.00,,,0.00,529,weatherlink.com 1.10,2013-09-18 23:24:00,
2013-09-18 16:39:00,73.7,54.0,29.82,South,180,5.0,7.0,50,0.00,,,0.00,482,weatherlink.com 1.10,2013-09-18 23:39:00,
2013-09-18 16:54:00,72.1,54.0,29.82,SSE,149,4.0,10.0,54,0.00,,,0.00,436,weatherlink.com 1.10,2013-09-18 23:54:00,
2013-09-18 17:09:00,72.1,54.0,29.82,SSE,156,2.0,7.0,53,0.00,,,0.00,387,weatherlink.com 1.10,2013-09-19 00:09:00,
2013-09-18 17:24:00,72.4,54.0,29.81,SSE,165,4.0,8.0,52,0.00,,,0.00,338,weatherlink.com 1.10,2013-09-19 00:24:00,
2013-09-18 17:39:00,71.9,54.0,29.82,SE,138,5.0,7.0,53,0.00,,,0.00,285,weatherlink.com 1.10,2013-09-19 00:39:00,
2013-09-18 17:54:00,69.9,55.0,29.82,SSE,157,3.0,9.0,59,0.00,,,0.00,227,weatherlink.com 1.10,2013-09-19 00:54:00,
2013-09-18 18:09:00,68.0,55.0,29.82,SE,128,5.0,7.0,63,0.00,,,0.00,93,weatherlink.com 1.10,2013-09-19 01:09:00,
2013-09-18 18:24:00,67.1,54.0,29.82,SSE,152,3.0,7.0,63,0.00,,,0.00,62,weatherlink.com 1.10,2013-09-19 01:24:00,
2013-09-18 18:39:00,66.5,54.0,29.83,South,173,1.0,5.0,64,0.00,,,0.00,21,weatherlink.com 1.10,2013-09-19 01:39:00,
2013-09-18 18:54:00,66.6,54.0,29.82,SE,144,3.0,4.0,64,0.00,,,0.00,12,weatherlink.com 1.10,2013-09-19 01:54:00,
2013-09-18 19:09:00,65.8,54.0,29.82,SSE,153,3.0,3.0,67,0.00,,,0.00,5,weatherlink.com 1.10,2013-09-19 02:09:00,
2013-09-18 19:24:00,64.9,54.0,29.82,SE,138,1.0,4.0,69,0.00,,,0.00,0,weatherlink.com 1.10,2013-09-19 02:24:00,
2013-09-18 19:39:00,64.7,54.0,29.82,SSE,155,0.0,2.0,69,0.00,,,0.00,0,weatherlink.com 1.10,2013-09-19 02:39:00,
2013-09-18 19:54:00,64.6,54.0,29.83,SE,145,1.0,4.0,68,0.00,,,0.00,0,weatherlink.com 1.10,2013-09-19 02:54:00,
2013-09-18 20:09:00,64.3,53.0,29.83,SE,145,0.0,2.0,67,0.00,,,0.00,0,weatherlink.com 1.10,2013-09-19 03:09:00,
2013-09-18 20:24:00,63.8,52.0,29.83,SE,145,0.0,1.0,66,0.00,,,0.00,0,weatherlink.com 1.10,2013-09-19 03:24:00,
2013-09-18 20:39:00,63.0,51.0,29.83,SE,145,0.0,0.0,65,0.00,,,0.00,0,weatherlink.com 1.10,2013-09-19 03:39:00,
2013-09-18 20:54:00,63.2,53.0,29.84,SSE,152,1.0,2.0,70,0.00,,,0.00,0,weatherlink.com 1.10,2013-09-19 03:54:00,
2013-09-18 21:09:00,63.0,55.0,29.84,SSE,155,3.0,3.0,75,0.00,,,0.00,0,weatherlink.com 1.10,2013-09-19 04:09:00,
2013-09-18 21:24:00,62.3,55.0,29.84,SSE,155,1.0,4.0,77,0.00,,,0.00,0,weatherlink.com 1.10,2013-09-19 04:24:00,
2013-09-18 21:39:00,62.2,55.0,29.84,SSE,153,3.0,3.0,76,0.00,,,0.00,0,weatherlink.com 1.10,2013-09-19 04:39:00,
2013-09-18 21:54:00,61.8,55.0,29.84,SSE,153,1.0,3.0,77,0.00,,,0.00,0,weatherlink.com 1.10,2013-09-19 04:54:00,
2013-09-18 22:09:00,61.2,55.0,29.84,SSE,154,0.0,3.0,79,0.00,,,0.00,0,weatherlink.com 1.10,2013-09-19 05:09:00,
2013-09-18 22:24:00,60.9,55.0,29.84,SSE,150,2.0,4.0,80,0.00,,,0.00,0,weatherlink.com 1.10,2013-09-19 05:24:00,
2013-09-18 22:39:00,60.5,54.0,29.84,SSE,150,1.0,3.0,80,0.00,,,0.00,0,weatherlink.com 1.10,2013-09-19 05:39:00,
2013-09-18 22:54:00,60.3,54.0,29.84,SE,142,2.0,4.0,80,0.00,,,0.00,0,weatherlink.com 1.10,2013-09-19 05:54:00,
2013-09-18 23:09:00,61.1,54.0,29.83,SE,139,4.0,7.0,76,0.00,,,0.00,0,weatherlink.com 1.10,2013-09-19 06:09:00,
2013-09-18 23:24:00,61.3,53.0,29.84,SE,146,3.0,5.0,74,0.00,,,0.00,0,weatherlink.com 1.10,2013-09-19 06:24:00,
2013-09-18 23:39:00,60.9,53.0,29.84,SE,142,1.0,5.0,75,0.00,,,0.00,0,weatherlink.com 1.10,2013-09-19 06:39:00,
2013-09-18 23:54:00,60.7,53.0,29.84,SE,144,2.0,6.0,77,0.00,,,0.00,0,weatherlink.com 1.10,2013-09-19 06:54:00,